Latest Coastal Weather Observations for Thevenard Island

IDW60701

Issued at 9:53 am WST Tuesday 25 June 2024 (issued every 10 minutes, with the page automatically refreshed every 10 minutes)

About coastal observations | Map of coastal stations | Coastal observations for WA | Marine services | Other Formats
Station Details ID: 005084 Name: THEVENARD ISLAND Lat: -21.46 Lon: 115.02 Height: 5.0 m
Data from the previous 72 hours. | See also: Recent months at Thevenard Island
Date/Time
WST
Wind Sea
Height
m
Swell Vis
km
Cloud Weather Temp
°C
Press
MSL
hPa
Rain since
9am
mm
Dir  Spd
kts
Gust
kts
Height
m
Period
s
Dir
25/09:30am NE 10 13 - - - - - - - 24.2 1014.9 0.0
25/09:00am NE 9 11 - - - - - - - 23.9 1014.9 0.0
25/08:30am NE 9 11 - - - - - - - 23.4 1014.7 0.0
25/08:00am NE 7 9 - - - - - - - 23.1 1014.5 0.0
25/07:30am NNW 4 5 - - - - - - - 21.2 1014.2 0.0
25/07:00am NNW 4 4 - - - - - - - 20.6 1013.9 0.0
25/06:30am NNW 3 4 - - - - - - - 20.5 1013.7 0.0
25/06:00am NNW 3 4 - - - - - - - 19.9 1013.7 0.0
25/05:30am NNW 4 5 - - - - - - - 20.3 1013.5 0.0
25/05:00am NNW 3 4 - - - - - - - 20.7 1013.6 0.0
25/04:30am NNW 4 4 - - - - - - - 21.1 1013.7 0.0
25/04:00am NNW 5 6 - - - - - - - 21.4 1013.7 0.0
25/03:30am NNW 6 7 - - - - - - - 21.2 1013.8 0.0
25/03:00am NNW 6 7 - - - - - - - 21.3 1014.0 0.0
25/02:30am NNW 6 6 - - - - - - - 21.2 1014.3 0.0
25/02:00am N 6 7 - - - - - - - 21.7 1014.5 0.0
25/01:30am NNW 6 7 - - - - - - - 21.5 1014.9 0.0
25/01:00am NNW 6 7 - - - - - - - 21.6 1014.9 0.0
25/12:30am NNW 6 7 - - - - - - - 20.9 1015.0 0.0
25/12:00am NNW 6 7 - - - - - - - 20.6 1015.2 0.0
 
Date/Time
WST
Wind Sea
Height
m
Swell Vis
km
Cloud Weather Temp
°C
Press
MSL
hPa
Rain since
9am
mm
Dir  Spd
kts
Gust
kts
Height
m
Period
s
Dir
24/11:30pm NNW 4 5 - - - - - - - 21.6 1015.4 0.0
24/11:00pm NNW 6 7 - - - - - - - 22.3 1015.6 0.0
24/10:30pm NNW 6 8 - - - - - - - 22.3 1015.7 0.0
24/10:00pm N 7 8 - - - - - - - 22.8 1015.8 0.0
24/09:30pm NNW 7 8 - - - - - - - 22.6 1016.0 0.0
24/09:00pm N 7 8 - - - - - - - 22.8 1016.0 0.0
24/08:30pm N 8 10 - - - - - - - 22.9 1016.0 0.0
24/08:00pm N 9 11 - - - - - - - 23.2 1015.9 0.0
24/07:30pm N 10 12 - - - - - - - 23.3 1015.8 0.0
24/07:00pm N 11 13 - - - - - - - 23.5 1015.6 0.0
24/06:30pm N 10 13 - - - - - - - 23.5 1015.5 0.0
24/06:00pm NNE 11 14 - - - - - - - 23.5 1015.3 0.0
24/05:30pm NNE 12 14 - - - - - - - 24.1 1015.2 0.0
24/05:00pm NNE 13 15 - - - - - - - 24.7 1015.2 0.0
24/04:30pm NNE 12 15 - - - - - - - 25.1 1015.3 0.0
24/04:00pm NNE 12 15 - - - - - - - 25.5 1015.4 0.0
24/03:30pm NNE 13 15 - - - - - - - 25.8 1015.6 0.0
24/03:00pm NNE 14 16 - - - - - - - 26.0 1015.6 0.0
24/02:30pm NNE 14 19 - - - - - - - 26.2 1015.7 0.0
24/02:00pm NNE 14 17 - - - - - - - 26.4 1016.0 0.0
24/01:30pm NE 13 16 - - - - - - - 26.8 1016.3 0.0
24/01:00pm NNE 13 17 - - - - - - - 26.3 1016.6 0.0
24/12:30pm NE 12 15 - - - - - - - 26.3 1016.9 0.0
24/12:00pm NE 12 15 - - - - - - - 26.2 1017.4 0.0
24/11:30am NE 10 13 - - - - - - - 25.9 1017.8 0.0
24/11:00am NE 10 13 - - - - - - - 25.1 1018.1 0.0
24/10:30am NE 10 13 - - - - - - - 25.3 1018.2 0.0
24/10:00am ENE 10 13 - - - - - - - 23.9 1018.3 0.0
24/09:30am NE 11 14 - - - - - - - 23.4 1018.2 0.0
24/09:00am ENE 10 13 - - - - - - - 22.8 1018.1 0.0
24/08:30am E 10 14 - - - - - - - 22.5 1017.9 0.0
24/08:00am ESE 14 18 - - - - - - - 21.3 1017.7 0.0
24/07:30am SE 13 15 - - - - - - - 21.6 1017.2 0.0
24/07:00am SSE 9 11 - - - - - - - 21.3 1016.8 0.0
24/06:30am SSE 8 9 - - - - - - - 21.2 1016.5 0.0
24/06:00am SSE 7 9 - - - - - - - 21.4 1016.2 0.0
24/05:30am SSE 7 8 - - - - - - - 21.3 1016.1 0.0
24/05:00am SSE 6 7 - - - - - - - 21.6 1016.1 0.0
24/04:30am SSE 7 9 - - - - - - - 21.9 1016.2 0.0
24/04:00am S 9 11 - - - - - - - 22.2 1016.3 0.0
24/03:30am SSW 7 9 - - - - - - - 21.8 1016.4 0.0
24/03:00am SW 6 6 - - - - - - - 21.2 1016.7 0.0
24/02:30am SW 6 7 - - - - - - - 21.8 1016.7 0.0
24/02:00am SW 4 4 - - - - - - - 20.1 1017.2 0.0
24/01:30am SW 4 5 - - - - - - - 21.3 1017.5 0.0
24/01:00am SW 7 7 - - - - - - - 22.6 1017.7 0.0
24/12:30am SW 7 9 - - - - - - - 22.5 1017.9 0.0
24/12:00am SW 7 10 - - - - - - - 22.8 1018.2 0.0
 
Date/Time
WST
Wind Sea
Height
m
Swell Vis
km
Cloud Weather Temp
°C
Press
MSL
hPa
Rain since
9am
mm
Dir  Spd
kts
Gust
kts
Height
m
Period
s
Dir
23/11:30pm SW 6 7 - - - - - - - 22.7 1018.3 0.0
23/11:00pm W 9 10 - - - - - - - 23.1 1018.3 0.0
23/10:30pm WNW 4 6 - - - - - - - 20.9 1018.5 0.0
23/10:00pm WNW 5 6 - - - - - - - 21.1 1018.5 0.0
23/09:30pm WNW 6 7 - - - - - - - 22.4 1018.3 0.0
23/09:00pm WNW 7 8 - - - - - - - 22.7 1018.2 0.0
23/08:30pm WNW 7 8 - - - - - - - 21.3 1018.1 0.0
23/08:00pm WNW 7 8 - - - - - - - 21.3 1018.0 0.0
23/07:30pm WNW 8 8 - - - - - - - 21.3 1017.9 0.0
23/07:00pm WNW 7 8 - - - - - - - 21.4 1017.6 0.0
23/06:30pm WNW 7 7 - - - - - - - 21.9 1017.4 0.0
23/06:00pm WNW 6 8 - - - - - - - 22.5 1017.2 0.0
23/05:30pm NW 5 7 - - - - - - - 23.9 1017.1 0.0
23/05:00pm NW 6 7 - - - - - - - 24.6 1017.1 0.0
23/04:30pm NW 6 8 - - - - - - - 25.0 1017.0 0.0
23/04:00pm NNW 6 8 - - - - - - - 26.8 1017.1 0.0
23/03:30pm NNE 5 6 - - - - - - - 26.7 1017.3 0.0
23/03:00pm NNE 4 6 - - - - - - - 27.5 1017.4 0.0
23/02:30pm NNE 4 6 - - - - - - - 27.8 1017.5 0.0
23/02:00pm NNE 5 6 - - - - - - - 27.3 1017.6 0.0
23/01:30pm NE 5 7 - - - - - - - 27.0 1017.9 0.0
23/01:00pm NE 6 7 - - - - - - - 26.5 1018.2 0.0
23/12:30pm E 5 7 - - - - - - - 26.9 1018.8 0.0
23/12:00pm E 6 7 - - - - - - - 25.6 1019.2 0.0
23/11:30am ESE 5 7 - - - - - - - 25.5 1019.5 0.0
23/11:00am SE 5 7 - - - - - - - 25.1 1019.9 0.0
23/10:30am E 5 7 - - - - - - - 25.2 1020.0 0.0
23/10:00am E 5 7 - - - - - - - 25.0 1020.2 0.0
23/09:30am ESE 7 8 - - - - - - - 24.5 1020.3 0.0
23/09:00am E 8 10 - - - - - - - 23.9 1020.0 0.0
23/08:30am E 8 10 - - - - - - - 23.1 1019.6 0.0
23/08:00am E 8 11 - - - - - - - 23.1 1019.1 0.0
23/07:30am E 7 9 - - - - - - - 22.1 1018.9 0.0
23/07:00am E 7 9 - - - - - - - 21.1 1018.7 0.0
23/06:30am ESE 7 9 - - - - - - - 20.7 1018.6 0.0
23/06:00am SE 7 9 - - - - - - - 20.9 1018.3 0.0
23/05:30am SE 7 9 - - - - - - - 21.1 1018.1 0.0
23/05:00am SSE 10 12 - - - - - - - 21.5 1018.3 0.0
23/04:30am SSE 10 11 - - - - - - - 21.7 1018.1 0.0
23/04:00am S 9 11 - - - - - - - 21.8 1018.1 0.0
23/03:30am SSW 10 11 - - - - - - - 21.8 1018.3 0.0
23/03:00am SSW 9 12 - - - - - - - 21.7 1018.5 0.0
23/02:30am SSW 10 12 - - - - - - - 21.8 1018.6 0.0
23/02:00am S 10 11 - - - - - - - 21.8 1018.9 0.0
23/01:30am S 10 12 - - - - - - - 22.0 1019.1 0.0
23/01:00am S 11 13 - - - - - - - 21.8 1019.1 0.0
23/12:30am S 13 15 - - - - - - - 21.7 1019.1 0.0
23/12:00am N 1 4 - - - - - - - 20.3 1018.9 0.0
 
Date/Time
WST
Wind Sea
Height
m
Swell Vis
km
Cloud Weather Temp
°C
Press
MSL
hPa
Rain since
9am
mm
Dir  Spd
kts
Gust
kts
Height
m
Period
s
Dir
22/11:30pm CALM 0 0 - - - - - - - 20.5 1018.8 0.0
22/11:00pm N 3 4 - - - - - - - 20.0 1019.0 0.0
22/10:30pm N 5 6 - - - - - - - 20.2 1019.3 0.0
22/10:00pm N 6 6 - - - - - - - 20.4 1019.2 0.0
22/09:30pm N 6 7 - - - - - - - 20.4 1018.9 0.0
22/09:00pm N 7 8 - - - - - - - 20.4 1018.7 0.0
22/08:30pm N 5 6 - - - - - - - 20.9 1018.5 0.0
22/08:00pm N 5 6 - - - - - - - 20.9 1018.4 0.0
22/07:30pm N 5 5 - - - - - - - 21.7 1018.3 0.0
22/07:00pm N 6 7 - - - - - - - 22.4 1018.0 0.0
22/06:30pm N 7 9 - - - - - - - 23.1 1017.9 0.0
22/06:00pm N 9 11 - - - - - - - 23.7 1017.5 0.0
22/05:30pm N 8 10 - - - - - - - 24.2 1017.3 0.0
22/05:00pm N 10 12 - - - - - - - 24.8 1017.2 0.0
22/04:30pm N 11 13 - - - - - - - 25.4 1017.1 0.0
22/04:00pm NNE 12 14 - - - - - - - 25.9 1016.9 0.0
22/03:30pm NNE 11 14 - - - - - - - 26.3 1017.0 0.0
22/03:00pm NNE 12 15 - - - - - - - 26.0 1017.1 0.0
22/02:30pm NNE 12 14 - - - - - - - 26.4 1017.3 0.0
22/02:00pm NNE 13 16 - - - - - - - 26.0 1017.3 0.0
22/01:30pm NE 13 17 - - - - - - - 25.7 1017.5 0.0
22/01:00pm NE 12 16 - - - - - - - 25.6 1017.9 0.0
22/12:30pm NE 12 16 - - - - - - - 25.5 1018.4 0.0
22/12:00pm NE 13 18 - - - - - - - 25.1 1018.9 0.0
22/11:30am NE 12 16 - - - - - - - 24.8 1019.5 0.0
22/11:00am NE 12 15 - - - - - - - 24.6 1019.9 0.0
22/10:30am NE 11 16 - - - - - - - 24.2 1020.0 0.0
22/10:00am ENE 12 16 - - - - - - - 23.6 1020.1 0.0

Other formats

Comma delimited format used in spreadsheet applications
http://www.bom.gov.au/fwo/IDW60701/IDW60701.94303.axf

JavaScript Object Notation format (JSON) in row-major order
http://www.bom.gov.au/fwo/IDW60701/IDW60701.94303.json

Data quality

Most of these data are generated automatically and are frequently updated. Quality checks on data are not normally performed. It is possible for incorrect values to appear. Refer to information at About Latest Weather Observations and please check the disclaimer before using these data.